createdAt,value
2018-03-27T00:01:32.561Z,4.90
2018-03-27T00:04:00.120Z,5.00
2018-03-27T00:06:28.768Z,4.80
2018-03-27T00:08:56.391Z,4.80
2018-03-27T00:11:23.931Z,4.80
2018-03-27T00:13:51.515Z,4.70
2018-03-27T00:16:19.060Z,4.70
2018-03-27T00:18:46.619Z,4.70
2018-03-27T00:21:30.809Z,4.60
2018-03-27T00:26:34.040Z,4.60
2018-03-27T00:29:14.183Z,4.40
2018-03-27T00:31:53.576Z,4.40
2018-03-27T00:34:33.036Z,4.50
2018-03-27T00:37:12.780Z,4.50
2018-03-27T00:39:52.031Z,4.50
2018-03-27T00:42:40.328Z,4.50
2018-03-27T00:45:07.877Z,4.50
2018-03-27T00:47:36.179Z,4.50
2018-03-27T00:50:03.760Z,4.50
2018-03-27T00:52:31.305Z,4.60
2018-03-27T00:54:58.920Z,4.60
2018-03-27T00:57:28.300Z,4.60
2018-03-27T00:59:55.844Z,4.60
2018-03-27T01:02:23.402Z,4.70
2018-03-27T01:04:50.975Z,4.60
2018-03-27T01:07:18.584Z,4.70
2018-03-27T01:09:46.895Z,4.80
2018-03-27T01:12:16.340Z,4.90
2018-03-27T01:14:43.888Z,4.90
2018-03-27T01:17:11.433Z,4.90
2018-03-27T01:19:39.204Z,4.80
2018-03-27T01:22:06.756Z,4.80
2018-03-27T01:24:34.300Z,4.80
2018-03-27T01:27:01.903Z,4.70
2018-03-27T01:29:29.451Z,4.70
2018-03-27T01:31:57.007Z,4.80
2018-03-27T01:34:24.580Z,4.80
2018-03-27T01:36:52.132Z,4.80
2018-03-27T01:39:19.680Z,4.80
2018-03-27T01:41:47.684Z,4.80
2018-03-27T01:44:17.272Z,4.80
2018-03-27T01:46:44.812Z,4.80
2018-03-27T01:49:12.419Z,4.70
2018-03-27T01:51:39.971Z,4.80
2018-03-27T01:54:07.511Z,4.80
2018-03-27T01:56:35.092Z,4.90
2018-03-27T01:59:02.920Z,4.90
2018-03-27T02:01:30.468Z,4.80
2018-03-27T02:03:59.106Z,4.80
2018-03-27T02:06:26.652Z,4.70
2018-03-27T02:08:54.196Z,4.70
2018-03-27T02:11:27.384Z,4.60
2018-03-27T02:14:00.612Z,4.70
2018-03-27T02:16:33.739Z,4.70
2018-03-27T02:19:06.834Z,4.60
2018-03-27T02:21:34.652Z,4.60
2018-03-27T02:24:03.699Z,4.60
2018-03-27T02:26:31.307Z,4.60
2018-03-27T02:28:58.900Z,4.70
2018-03-27T02:31:27.270Z,4.60
2018-03-27T02:33:54.809Z,4.60
2018-03-27T02:36:22.413Z,4.60
2018-03-27T02:38:49.972Z,4.50
2018-03-27T02:41:18.357Z,4.70
2018-03-27T02:43:47.304Z,4.70
2018-03-27T02:46:15.608Z,4.60
2018-03-27T02:48:43.166Z,4.70
2018-03-27T02:51:14.568Z,4.70
2018-03-27T02:53:42.126Z,4.70
2018-03-27T02:56:09.677Z,4.60
2018-03-27T02:58:37.264Z,4.60
2018-03-27T03:01:05.143Z,4.60
2018-03-27T03:03:32.695Z,4.70
2018-03-27T03:06:00.871Z,4.70
2018-03-27T03:08:28.420Z,4.70
2018-03-27T03:10:55.984Z,4.60
2018-03-27T03:13:23.568Z,4.70
2018-03-27T03:15:51.155Z,4.70
2018-03-27T03:18:18.712Z,4.70
2018-03-27T03:20:46.288Z,4.60
2018-03-27T03:23:26.672Z,4.50
2018-03-27T03:28:30.140Z,4.50
2018-03-27T03:30:57.735Z,4.40
2018-03-27T03:33:25.328Z,4.30
2018-03-27T03:35:52.895Z,4.30
2018-03-27T03:38:20.436Z,4.40
2018-03-27T03:40:48.020Z,4.30
2018-03-27T03:43:17.322Z,4.40
2018-03-27T03:45:44.949Z,4.30
2018-03-27T03:48:12.522Z,4.30
2018-03-27T03:50:40.605Z,4.30
2018-03-27T03:53:08.188Z,4.30
2018-03-27T03:55:35.712Z,4.30
2018-03-27T03:58:03.283Z,4.30
2018-03-27T04:00:30.903Z,4.30
2018-03-27T04:02:59.383Z,4.30
2018-03-27T04:05:26.970Z,4.40
2018-03-27T04:07:54.530Z,4.40
2018-03-27T04:10:22.076Z,4.40
2018-03-27T04:12:49.960Z,4.40
2018-03-27T04:15:17.503Z,4.30
2018-03-27T04:17:45.044Z,4.30
2018-03-27T04:20:12.608Z,4.30
2018-03-27T04:22:40.151Z,4.30
2018-03-27T04:25:07.776Z,4.30
2018-03-27T04:27:35.347Z,4.30
2018-03-27T04:30:02.891Z,4.20
2018-03-27T04:32:30.422Z,4.20
2018-03-27T04:34:58.524Z,4.20
2018-03-27T04:37:26.068Z,4.20
2018-03-27T04:39:53.604Z,4.20
2018-03-27T04:42:21.184Z,4.20
2018-03-27T04:44:48.783Z,4.20
2018-03-27T04:47:16.468Z,4.20
2018-03-27T04:49:44.804Z,4.20
2018-03-27T04:52:12.341Z,4.20
2018-03-27T04:54:39.876Z,4.20
2018-03-27T04:57:07.487Z,4.10
2018-03-27T04:59:35.039Z,4.20
2018-03-27T05:02:02.575Z,4.20
2018-03-27T05:04:30.768Z,4.20
2018-03-27T05:06:58.321Z,4.20
2018-03-27T05:09:25.909Z,4.20
2018-03-27T05:11:53.477Z,4.20
2018-03-27T05:14:21.020Z,4.20
2018-03-27T05:16:48.560Z,4.20
2018-03-27T05:19:16.944Z,4.10
2018-03-27T05:21:44.500Z,4.20
2018-03-27T05:24:12.043Z,4.10
2018-03-27T05:26:39.612Z,4.10
2018-03-27T05:29:07.196Z,4.20
2018-03-27T05:31:34.741Z,4.00
2018-03-27T05:34:02.328Z,4.00
2018-03-27T05:36:29.859Z,4.10
2018-03-27T05:38:57.402Z,4.20
2018-03-27T05:41:25.486Z,4.10
2018-03-27T05:43:53.028Z,4.10
2018-03-27T05:46:20.682Z,4.10
2018-03-27T05:48:49.028Z,4.00
2018-03-27T05:51:16.619Z,4.00
2018-03-27T05:53:44.946Z,4.00
2018-03-27T05:56:12.564Z,4.00
2018-03-27T05:58:40.872Z,4.10
2018-03-27T06:01:08.410Z,4.10
2018-03-27T06:03:36.221Z,4.20
2018-03-27T06:06:04.009Z,4.20
2018-03-27T06:08:32.326Z,4.20
2018-03-27T06:10:59.900Z,4.10
2018-03-27T06:13:27.444Z,4.20
2018-03-27T06:15:55.004Z,4.20
2018-03-27T06:18:22.579Z,4.20
2018-03-27T06:20:50.621Z,4.10
2018-03-27T06:23:18.921Z,4.20
2018-03-27T06:25:47.947Z,4.20
2018-03-27T06:28:16.473Z,4.10
2018-03-27T06:30:44.768Z,4.20
2018-03-27T06:33:12.332Z,4.10
2018-03-27T06:35:39.872Z,4.10
2018-03-27T06:38:08.178Z,4.10
2018-03-27T06:40:35.759Z,4.10
2018-03-27T06:43:03.320Z,4.20
2018-03-27T06:45:30.980Z,4.30
2018-03-27T06:47:58.673Z,4.40
2018-03-27T06:50:26.217Z,4.40
2018-03-27T06:52:53.817Z,4.40
2018-03-27T06:55:21.372Z,4.30
2018-03-27T06:57:49.684Z,4.30
2018-03-27T07:00:17.269Z,4.30
2018-03-27T07:05:18.483Z,4.30
2018-03-27T07:07:46.981Z,4.20
2018-03-27T07:10:15.690Z,4.10
2018-03-27T07:12:43.279Z,4.10
2018-03-27T07:15:10.827Z,4.00
2018-03-27T07:17:38.405Z,4.10
2018-03-27T07:23:02.614Z,4.20
2018-03-27T07:25:30.209Z,4.10
2018-03-27T07:27:57.778Z,4.10
2018-03-27T07:30:27.397Z,4.00
2018-03-27T07:35:27.972Z,4.10
2018-03-27T07:37:55.569Z,3.90
2018-03-27T07:40:23.819Z,3.80
2018-03-27T07:42:51.394Z,3.80
2018-03-27T07:45:18.968Z,3.80
2018-03-27T07:47:46.630Z,3.80
2018-03-27T07:50:28.541Z,3.80
2018-03-27T08:02:26.465Z,3.80
2018-03-27T08:04:54.029Z,4.10
2018-03-27T08:07:21.696Z,4.40
2018-03-27T08:09:49.584Z,4.50
2018-03-27T08:12:17.904Z,4.90
2018-03-27T08:14:45.477Z,4.90
2018-03-27T10:49:46.703Z,12.00
2018-03-27T10:52:26.529Z,12.00
2018-03-27T10:57:27.876Z,11.80
2018-03-27T10:59:55.426Z,11.50
2018-03-27T11:02:22.964Z,11.00
2018-03-27T11:04:51.348Z,11.30
2018-03-27T11:07:18.888Z,11.20
2018-03-27T11:09:46.431Z,11.60
2018-03-27T11:12:16.336Z,11.60
2018-03-27T11:14:43.892Z,11.60
2018-03-27T11:17:11.432Z,11.50
2018-03-27T11:19:38.992Z,11.50
2018-03-27T11:22:06.556Z,11.40
2018-03-27T11:24:34.109Z,11.50
2018-03-27T11:27:02.099Z,11.40
2018-03-27T11:29:29.745Z,11.60
2018-03-27T11:31:57.305Z,11.40
2018-03-27T11:34:24.911Z,11.10
2018-03-27T11:36:52.455Z,11.00
2018-03-27T11:39:20.008Z,10.80
2018-03-27T11:41:47.630Z,10.40
2018-03-27T11:44:15.595Z,10.30
2018-03-27T11:46:43.132Z,10.40
2018-03-27T11:49:11.492Z,10.40
2018-03-27T11:51:39.291Z,10.30
2018-03-27T11:54:07.400Z,10.40
2018-03-27T11:56:34.977Z,10.20
2018-03-27T11:59:02.519Z,10.30
2018-03-27T12:01:30.079Z,10.20
2018-03-27T12:03:58.571Z,10.30
2018-03-27T12:06:26.153Z,10.30
2018-03-27T12:08:53.708Z,10.30
2018-03-27T12:11:21.668Z,10.30
2018-03-27T12:13:49.217Z,10.50
2018-03-27T12:16:16.773Z,10.70
2018-03-27T12:18:44.390Z,10.80
2018-03-27T12:21:11.939Z,10.90
2018-03-27T12:23:40.243Z,10.80
2018-03-27T12:26:07.806Z,10.80
2018-03-27T12:31:13.783Z,10.70
2018-03-27T12:33:41.330Z,10.60
2018-03-27T12:36:09.969Z,10.60
2018-03-27T12:38:38.648Z,10.90
2018-03-27T12:41:09.182Z,11.20
2018-03-27T12:43:36.837Z,11.60
2018-03-27T12:46:04.408Z,11.90
2018-03-27T12:48:31.957Z,12.30
2018-03-27T12:50:59.605Z,12.40
2018-03-27T12:53:28.000Z,12.40
2018-03-27T12:55:55.549Z,12.10
2018-03-27T12:58:23.100Z,11.90
2018-03-27T13:00:50.671Z,11.60
2018-03-27T13:03:18.216Z,11.00
2018-03-27T13:05:45.774Z,10.50
2018-03-27T13:08:30.945Z,9.50
2018-03-27T13:13:31.712Z,9.00
2018-03-27T13:15:59.277Z,8.60
2018-03-27T13:18:26.820Z,8.40
2018-03-27T13:20:55.160Z,8.40
2018-03-27T13:23:23.126Z,8.40
2018-03-27T13:25:51.441Z,8.50
2018-03-27T13:28:19.901Z,8.50
2018-03-27T13:30:47.440Z,8.50
2018-03-27T13:33:16.392Z,8.70
2018-03-27T13:35:43.987Z,8.90
2018-03-27T13:38:11.547Z,9.30
2018-03-27T13:40:39.083Z,9.60
2018-03-27T13:43:06.671Z,9.70
2018-03-27T13:45:34.981Z,10.10
2018-03-27T13:48:02.550Z,10.10
2018-03-27T13:50:30.448Z,10.20
2018-03-27T13:52:57.987Z,10.50
2018-03-27T13:55:25.796Z,10.70
2018-03-27T13:57:57.372Z,10.70
2018-03-27T14:00:26.847Z,10.70
2018-03-27T14:02:55.424Z,11.10
2018-03-27T14:05:23.021Z,11.10
2018-03-27T14:07:57.365Z,11.40
2018-03-27T14:10:25.268Z,11.50
2018-03-27T14:12:52.811Z,11.70
2018-03-27T14:15:20.354Z,11.60
2018-03-27T14:17:47.932Z,11.50
2018-03-27T14:20:17.332Z,11.50
2018-03-27T14:22:45.174Z,11.50
2018-03-27T14:25:12.752Z,11.50
2018-03-27T14:27:40.295Z,11.40
2018-03-27T14:30:07.839Z,11.40
2018-03-27T14:32:35.908Z,11.20
2018-03-27T14:35:03.459Z,10.90
2018-03-27T14:37:31.013Z,10.50
2018-03-27T14:39:59.364Z,10.30
2018-03-27T14:42:26.912Z,10.30
2018-03-27T14:44:54.872Z,10.40
2018-03-27T14:47:22.448Z,10.40
2018-03-27T14:49:49.992Z,10.30
2018-03-27T14:52:17.532Z,10.30
2018-03-27T14:54:45.311Z,10.40
2018-03-27T14:57:14.003Z,10.40
2018-03-27T14:59:41.604Z,10.10
2018-03-27T15:02:09.172Z,10.10
2018-03-27T15:04:36.720Z,10.10
2018-03-27T15:07:04.259Z,10.10
2018-03-27T15:09:31.831Z,10.00
2018-03-27T15:11:59.383Z,9.80
2018-03-27T15:14:26.919Z,9.80
2018-03-27T15:16:55.060Z,9.50
2018-03-27T15:19:23.436Z,9.50
2018-03-27T15:21:51.745Z,9.50
2018-03-27T15:24:19.368Z,9.50
2018-03-27T15:26:46.980Z,9.60
2018-03-27T15:29:25.333Z,9.60
2018-03-27T15:35:04.341Z,9.40
2018-03-27T15:37:31.919Z,9.20
2018-03-27T15:39:59.499Z,9.10
2018-03-27T15:42:27.134Z,9.20
2018-03-27T15:44:54.793Z,9.00
2018-03-27T15:47:22.420Z,8.80
2018-03-27T15:49:50.068Z,9.00
2018-03-27T15:52:17.689Z,8.90
2018-03-27T15:54:45.317Z,9.00
2018-03-27T15:57:13.909Z,9.20
2018-03-27T15:59:42.152Z,9.30
2018-03-27T16:02:09.813Z,9.30
2018-03-27T16:04:37.485Z,9.40
2018-03-27T16:07:05.317Z,9.40
2018-03-27T16:09:32.966Z,9.40
2018-03-27T16:12:00.601Z,9.40
2018-03-27T16:14:28.193Z,9.40
2018-03-27T16:16:55.843Z,9.40
2018-03-27T16:19:23.521Z,9.40
2018-03-27T16:21:51.169Z,9.30
2018-03-27T16:24:18.983Z,9.30
2018-03-27T16:29:27.977Z,9.20
2018-03-27T16:31:55.697Z,9.10
2018-03-27T16:34:24.275Z,9.00
2018-03-27T16:36:52.174Z,8.90
2018-03-27T16:39:20.182Z,8.80
2018-03-27T16:41:49.831Z,8.80
2018-03-27T16:44:17.486Z,8.90
2018-03-27T16:46:45.141Z,8.90
2018-03-27T16:49:14.870Z,8.90
2018-03-27T16:51:42.785Z,8.80
2018-03-27T16:54:10.450Z,8.90
2018-03-27T16:56:38.134Z,8.90
2018-03-27T16:59:05.812Z,8.80
2018-03-27T17:01:34.512Z,8.80
2018-03-27T17:04:02.175Z,8.70
2018-03-27T17:06:29.805Z,8.70
2018-03-27T17:08:58.240Z,8.60
2018-03-27T17:11:26.053Z,8.60
2018-03-27T17:13:54.457Z,8.40
2018-03-27T17:16:22.088Z,8.40
2018-03-27T17:18:49.789Z,8.40
2018-03-27T17:21:17.327Z,8.30
2018-03-27T17:23:45.232Z,8.20
2018-03-27T17:26:12.881Z,8.10
2018-03-27T17:28:40.427Z,8.10
2018-03-27T17:31:08.006Z,8.00
2018-03-27T17:33:36.628Z,8.00
2018-03-27T17:36:04.235Z,7.90
2018-03-27T17:38:31.852Z,7.90
2018-03-27T17:40:59.421Z,7.80
2018-03-27T17:43:27.048Z,7.60
2018-03-27T17:45:54.724Z,7.60
2018-03-27T17:48:22.416Z,7.60
2018-03-27T17:50:49.980Z,7.50
2018-03-27T17:53:17.613Z,7.40
2018-03-27T17:55:45.203Z,7.30
2018-03-27T17:58:14.450Z,7.20
2018-03-27T18:00:42.027Z,7.20
2018-03-27T18:03:09.907Z,7.10
2018-03-27T18:05:37.488Z,7.10
2018-03-27T18:08:05.094Z,7.00
2018-03-27T18:10:32.881Z,6.90
2018-03-27T18:13:00.939Z,6.80
2018-03-27T18:15:36.292Z,6.70
2018-03-27T18:18:04.660Z,6.50
2018-03-27T18:20:32.213Z,6.50
2018-03-27T18:23:01.298Z,6.40
2018-03-27T18:25:28.876Z,6.30
2018-03-27T18:27:56.420Z,6.20
2018-03-27T18:30:24.357Z,6.20
2018-03-27T18:32:51.917Z,6.20
2018-03-27T18:35:20.224Z,6.00
2018-03-27T18:37:47.799Z,5.90
2018-03-27T18:40:16.387Z,5.80
2018-03-27T18:42:43.931Z,5.80
2018-03-27T18:45:11.709Z,5.80
2018-03-27T18:47:39.264Z,5.80
2018-03-27T18:50:06.895Z,5.70
2018-03-27T18:52:34.749Z,5.60
2018-03-27T18:55:02.336Z,5.60
2018-03-27T18:57:29.884Z,5.60
2018-03-27T18:59:57.502Z,5.60
2018-03-27T19:02:25.057Z,5.50
2018-03-27T19:04:53.703Z,5.50
2018-03-27T19:07:21.313Z,5.50
2018-03-27T19:09:48.866Z,5.40
2018-03-27T19:12:16.452Z,5.30
2018-03-27T19:14:44.050Z,5.30
2018-03-27T19:17:11.627Z,5.30
2018-03-27T19:19:39.186Z,5.30
2018-03-27T19:22:06.749Z,5.30
2018-03-27T19:24:34.290Z,5.20
2018-03-27T19:27:01.832Z,5.10
2018-03-27T19:29:30.168Z,5.00
2018-03-27T19:31:57.724Z,5.00
2018-03-27T19:34:25.293Z,5.10
2018-03-27T19:36:52.916Z,5.00
2018-03-27T19:39:20.488Z,4.90
2018-03-27T19:41:48.813Z,4.80
2018-03-27T19:44:16.493Z,4.80
2018-03-27T19:46:44.918Z,4.80
2018-03-27T19:49:12.520Z,4.80
2018-03-27T19:51:40.978Z,4.90
2018-03-27T19:54:08.511Z,4.80
2018-03-27T19:56:36.053Z,4.80
2018-03-27T19:59:04.143Z,4.80
2018-03-27T20:01:31.669Z,4.80
2018-03-27T20:04:00.000Z,4.70
2018-03-27T20:06:27.639Z,4.70
2018-03-27T20:08:55.186Z,4.70
2018-03-27T20:11:22.728Z,4.70
2018-03-27T20:13:51.063Z,4.70
2018-03-27T20:16:18.603Z,4.70
2018-03-27T20:18:47.047Z,4.80
2018-03-27T20:21:16.527Z,4.70
2018-03-27T20:23:44.847Z,4.70
2018-03-27T20:26:12.387Z,4.70
2018-03-27T20:28:39.964Z,4.70
2018-03-27T20:31:07.516Z,4.80
2018-03-27T20:33:35.060Z,4.80
2018-03-27T20:36:02.640Z,4.80
2018-03-27T20:38:30.188Z,4.80
2018-03-27T20:40:57.780Z,4.80
2018-03-27T20:43:25.673Z,4.80
2018-03-27T20:45:53.371Z,4.80
2018-03-27T20:48:21.694Z,4.80
2018-03-27T20:50:49.292Z,4.80
2018-03-27T20:53:16.840Z,4.80
2018-03-27T20:55:44.384Z,4.90
2018-03-27T20:58:11.952Z,4.90
2018-03-27T21:00:39.516Z,5.00
2018-03-27T21:03:07.852Z,5.00
2018-03-27T21:05:35.495Z,5.00
2018-03-27T21:08:04.005Z,5.10
2018-03-27T21:10:31.950Z,5.10
2018-03-27T21:13:00.447Z,4.80
2018-03-27T21:15:27.979Z,4.80
2018-03-27T21:17:55.516Z,4.80
2018-03-27T21:20:23.085Z,4.80
2018-03-27T21:22:50.740Z,4.80
2018-03-27T21:25:19.136Z,4.80
2018-03-27T21:27:48.377Z,4.90
2018-03-27T21:30:18.620Z,4.90
2018-03-27T21:32:46.189Z,5.00
2018-03-27T21:35:14.809Z,5.00
2018-03-27T21:37:43.126Z,5.20
2018-03-27T21:40:10.671Z,5.10
2018-03-27T21:42:39.114Z,5.20
2018-03-27T21:45:06.673Z,5.20
2018-03-27T21:47:34.220Z,5.30
2018-03-27T21:50:01.963Z,5.20
2018-03-27T21:52:29.576Z,5.30
2018-03-27T21:54:57.138Z,5.30
2018-03-27T21:57:25.384Z,5.40
2018-03-27T21:59:52.968Z,5.50
2018-03-27T22:02:21.298Z,5.60
2018-03-27T22:04:49.891Z,5.60
2018-03-27T22:07:17.440Z,5.60
2018-03-27T22:09:45.272Z,5.60
2018-03-27T22:12:15.668Z,5.50
2018-03-27T22:14:43.208Z,5.50
2018-03-27T22:17:10.764Z,5.60
2018-03-27T22:19:38.431Z,5.50
2018-03-27T22:22:05.991Z,5.40
2018-03-27T22:24:33.585Z,5.30
2018-03-27T22:27:01.201Z,5.30
2018-03-27T22:29:28.743Z,5.30
2018-03-27T22:31:56.279Z,5.30
2018-03-27T22:34:23.891Z,5.30
2018-03-27T22:36:51.427Z,5.30
2018-03-27T22:39:18.968Z,5.40
2018-03-27T22:41:46.575Z,5.50
2018-03-27T22:44:16.374Z,5.40
2018-03-27T22:46:43.940Z,5.40
2018-03-27T22:49:11.513Z,5.40
2018-03-27T22:51:39.056Z,5.50
2018-03-27T22:54:06.597Z,5.50
2018-03-27T22:56:34.487Z,5.50
2018-03-27T22:59:02.060Z,5.60
2018-03-27T23:01:29.617Z,5.60
2018-03-27T23:03:57.291Z,5.60
2018-03-27T23:06:24.833Z,5.60
2018-03-27T23:08:52.435Z,5.60
2018-03-27T23:11:20.481Z,5.60
2018-03-27T23:13:48.897Z,5.50
2018-03-27T23:16:16.470Z,5.50
2018-03-27T23:18:44.696Z,5.50
2018-03-27T23:21:12.282Z,5.50
2018-03-27T23:23:39.820Z,5.50
2018-03-27T23:26:07.398Z,5.50
2018-03-27T23:28:35.716Z,5.50
2018-03-27T23:31:03.380Z,5.50
2018-03-27T23:33:30.968Z,5.40
2018-03-27T23:35:58.507Z,5.50
2018-03-27T23:38:26.047Z,5.50
2018-03-27T23:40:54.105Z,5.50
2018-03-27T23:43:21.645Z,5.40
2018-03-27T23:45:49.948Z,5.50
2018-03-27T23:48:17.515Z,5.40
2018-03-27T23:50:45.044Z,5.40
2018-03-27T23:53:14.276Z,5.40
2018-03-27T23:55:41.840Z,5.40
2018-03-27T23:58:09.386Z,5.40
